createdAt,value
2017-11-09T10:23:23.534Z,22.2
2017-11-09T10:25:16.379Z,21.9
2017-11-09T10:25:31.878Z,21.7
2017-11-09T10:25:50.665Z,21.6
2017-11-09T10:26:02.225Z,21.4
2017-11-09T10:26:16.378Z,21.3
2017-11-09T10:26:28.439Z,21.2
2017-11-09T10:26:39.978Z,21
2017-11-09T10:26:51.567Z,21
2017-11-09T10:27:07.085Z,20.9
2017-11-09T10:27:25.904Z,20.9
2017-11-09T10:27:41.348Z,20.8
2017-11-09T10:28:21.750Z,20.7
2017-11-09T10:28:34.066Z,20.7
2017-11-09T10:28:45.650Z,20.7
2017-11-09T10:29:01.266Z,20.6
2017-11-09T10:29:13.503Z,20.7
2017-11-09T10:29:52.683Z,20.6
2017-11-09T10:30:08.183Z,20.6
2017-11-09T10:30:20.479Z,20.6
2017-11-09T10:30:36.090Z,20.7
2017-11-09T10:30:48.407Z,20.7
2017-11-09T10:31:03.971Z,20.6
2017-11-09T10:31:20.347Z,20.7
2017-11-09T10:31:32.724Z,20.6
2017-11-09T10:31:48.200Z,20.6
2017-11-09T10:32:00.581Z,20.6
2017-11-09T10:32:15.282Z,20.6
2017-11-09T10:32:26.820Z,20.5
2017-11-09T10:32:38.422Z,20.6
2017-11-09T10:32:50.030Z,20.6
2017-11-09T10:33:01.489Z,20.6
2017-11-09T10:33:16.977Z,20.6
2017-11-09T10:33:29.366Z,20.6
2017-11-09T10:33:44.954Z,20.6
2017-11-09T10:34:01.331Z,20.6
2017-11-09T10:34:17.626Z,20.5
2017-11-09T10:34:29.940Z,20.6
2017-11-09T10:35:11.993Z,20.5
2017-11-09T10:35:23.512Z,20.5
2017-11-09T10:35:34.991Z,20.4
2017-11-09T10:35:46.581Z,20.5
2017-11-09T10:35:58.104Z,20.5
2017-11-09T10:36:51.420Z,20.5
2017-11-09T10:37:03.687Z,20.5
2017-11-09T10:37:20.317Z,20.5
2017-11-09T10:37:32.711Z,20.5
2017-11-09T10:37:44.214Z,20.5
2017-11-09T10:37:55.818Z,20.4
2017-11-09T10:38:07.461Z,20.4
2017-11-09T10:38:22.917Z,20.5
2017-11-09T10:38:35.206Z,20.5
2017-11-09T10:38:46.814Z,20.5
2017-11-09T10:39:03.199Z,20.4
2017-11-09T10:39:17.860Z,20.5
2017-11-09T10:39:35.025Z,20.5
2017-11-09T10:39:47.335Z,20.5
2017-11-09T10:40:02.955Z,20.5
2017-11-09T10:40:19.286Z,20.5
2017-11-09T10:40:35.634Z,20.5
2017-11-09T10:40:52.005Z,20.4
2017-11-09T10:41:04.327Z,20.4
2017-11-09T10:41:19.836Z,20.4
2017-11-09T10:41:36.213Z,20.5
2017-11-09T10:41:48.629Z,20.4
2017-11-09T10:42:00.116Z,20.4
2017-11-09T10:42:15.668Z,20.5
2017-11-09T10:42:28.021Z,20.4
2017-11-09T10:42:43.545Z,20.4
2017-11-09T10:42:56.921Z,20.4
2017-11-09T10:43:13.047Z,20.4
2017-11-09T10:43:29.445Z,20.4
2017-11-09T10:43:45.767Z,20.4
2017-11-09T10:44:02.173Z,20.4
2017-11-09T10:44:14.470Z,20.3
2017-11-09T10:44:29.992Z,20.4
2017-11-09T10:44:46.388Z,20.4
2017-11-09T10:45:02.744Z,20.4
2017-11-09T10:45:19.025Z,20.4
2017-11-09T10:45:31.399Z,20.4
2017-11-09T10:45:46.992Z,20.4
2017-11-09T10:46:03.289Z,20.4
2017-11-09T10:46:15.642Z,20.3
2017-11-09T10:46:31.217Z,20.4
2017-11-09T10:46:57.545Z,20.4
2017-11-09T10:47:09.532Z,20.4
2017-11-09T10:47:25.093Z,20.4
2017-11-09T10:47:41.420Z,20.4
2017-11-09T10:47:53.770Z,20.4
2017-11-09T10:48:05.299Z,20.3
2017-11-09T10:48:16.818Z,20.4
2017-11-09T10:48:28.392Z,20.4
2017-11-09T10:48:39.955Z,20.4
2017-11-09T10:48:51.491Z,20.4
2017-11-09T10:49:03.113Z,20.4
2017-11-09T10:49:18.633Z,20.4
2017-11-09T10:49:35.069Z,20.4
2017-11-09T10:49:52.026Z,20.4
2017-11-09T10:50:07.822Z,20.3
2017-11-09T10:50:20.075Z,20.3
2017-11-09T10:50:33.364Z,20.4
2017-11-09T10:50:50.925Z,20.3
2017-11-09T10:51:04.348Z,20.4
2017-11-09T10:51:15.864Z,20.4
2017-11-09T10:51:32.977Z,20.3
2017-11-09T10:51:45.315Z,20.4
2017-11-09T10:51:56.904Z,20.4
2017-11-09T10:52:10.950Z,20.4
2017-11-09T10:52:36.787Z,20.4
2017-11-09T10:52:49.372Z,20.4
2017-11-09T10:53:02.299Z,20.4
2017-11-09T10:53:15.544Z,20.4
2017-11-09T10:53:28.658Z,20.4
2017-11-09T10:53:40.131Z,20.4
2017-11-09T10:53:51.681Z,20.4
2017-11-09T10:54:07.214Z,20.4
2017-11-09T10:54:19.573Z,20.4
2017-11-09T10:54:40.757Z,20.4
2017-11-09T10:54:52.249Z,20.4
2017-11-09T10:55:07.819Z,20.4
2017-11-09T10:55:20.154Z,20.4
2017-11-09T10:55:42.701Z,20.5
2017-11-09T10:55:54.454Z,20.4
2017-11-09T10:56:06.077Z,20.4
2017-11-09T10:56:17.538Z,20.4
2017-11-09T10:56:29.119Z,20.5
2017-11-09T10:56:40.722Z,20.4
2017-11-09T10:56:52.210Z,20.5
2017-11-09T10:57:03.883Z,20.4
2017-11-09T10:57:15.428Z,20.4
2017-11-09T10:57:26.837Z,20.5
2017-11-09T10:57:38.518Z,20.4
2017-11-09T10:57:55.668Z,20.5
2017-11-09T10:58:07.980Z,20.5
2017-11-09T10:58:23.524Z,20.4
2017-11-09T10:58:35.866Z,20.4
2017-11-09T10:58:51.414Z,20.4
2017-11-09T10:59:03.777Z,20.5
2017-11-09T10:59:15.283Z,20.5
2017-11-09T10:59:26.883Z,20.5
2017-11-09T10:59:38.414Z,20.4
2017-11-09T10:59:49.975Z,20.5
2017-11-09T11:00:01.463Z,20.5
2017-11-09T11:00:13.037Z,20.4
2017-11-09T11:00:24.623Z,20.4
2017-11-09T11:00:36.142Z,20.4
2017-11-09T11:00:47.667Z,20.4
2017-11-09T11:00:59.278Z,20.5
2017-11-09T11:01:14.832Z,20.4
2017-11-09T11:01:27.215Z,20.4
2017-11-09T11:01:38.701Z,20.5
2017-11-09T11:01:51.271Z,20.5
2017-11-09T11:02:07.412Z,20.5
2017-11-09T11:02:23.880Z,20.5
2017-11-09T11:02:36.633Z,20.5
2017-11-09T11:02:53.250Z,20.4
2017-11-09T11:03:09.636Z,20.5
2017-11-09T11:03:21.925Z,20.5
2017-11-09T11:03:33.527Z,20.5
2017-11-09T11:03:57.086Z,20.5
2017-11-09T11:04:09.435Z,20.5
2017-11-09T11:04:20.992Z,20.5
2017-11-09T11:04:32.490Z,20.5
2017-11-09T11:04:44.060Z,20.5
2017-11-09T11:04:58.097Z,20.5
2017-11-09T11:05:10.403Z,20.5
2017-11-09T11:05:25.883Z,20.5
2017-11-09T11:05:38.253Z,20.5
2017-11-09T11:05:49.825Z,20.5
2017-11-09T11:06:25.759Z,20.5
2017-11-09T11:06:41.232Z,20.4
2017-11-09T11:06:57.639Z,20.5
2017-11-09T11:07:10.868Z,20.5
2017-11-09T11:07:27.080Z,20.4
2017-11-09T11:07:39.438Z,20.4
2017-11-09T11:07:55.063Z,20.4
2017-11-09T11:08:11.317Z,20.5
2017-11-09T11:08:27.767Z,20.5
2017-11-09T11:08:40.066Z,20.5
2017-11-09T11:08:55.652Z,20.4
2017-11-09T11:09:12.021Z,20.5
2017-11-09T11:09:28.770Z,20.4
2017-11-09T11:09:44.645Z,20.4
2017-11-09T11:09:57.047Z,20.4
2017-11-09T11:10:12.563Z,20.4
2017-11-09T11:10:24.880Z,20.5
2017-11-09T11:10:40.430Z,20.5
2017-11-09T11:10:52.795Z,20.5
2017-11-09T11:11:08.366Z,20.5
2017-11-09T11:11:24.723Z,20.5
2017-11-09T11:11:37.047Z,20.5
2017-11-09T11:12:03.020Z,20.5
2017-11-09T11:12:18.605Z,20.5
2017-11-09T11:12:30.906Z,20.5
2017-11-09T11:12:42.517Z,20.5
2017-11-09T11:12:54.067Z,20.4
2017-11-09T11:13:05.616Z,20.5
2017-11-09T11:13:17.175Z,20.5
2017-11-09T11:13:28.734Z,20.4
2017-11-09T11:13:45.894Z,20.4
2017-11-09T11:14:02.275Z,20.5
2017-11-09T11:14:15.785Z,20.4
2017-11-09T11:14:31.679Z,20.5
2017-11-09T11:14:48.061Z,20.5
2017-11-09T11:15:02.191Z,20.5
2017-11-09T11:15:15.737Z,20.5
2017-11-09T11:15:28.405Z,20.5
2017-11-09T11:15:40.417Z,20.5
2017-11-09T11:15:53.045Z,20.5
2017-11-09T11:16:04.644Z,20.5
2017-11-09T11:16:18.664Z,20.5
2017-11-09T11:16:30.936Z,20.5
2017-11-09T11:16:42.469Z,20.4
2017-11-09T11:16:54.018Z,20.5
2017-11-09T11:17:05.580Z,20.5
2017-11-09T11:17:17.098Z,20.4
2017-11-09T11:17:32.614Z,20.5
2017-11-09T11:17:45.013Z,20.5
2017-11-09T11:18:00.552Z,20.5
2017-11-09T11:18:28.165Z,20.5
2017-11-09T11:18:40.439Z,20.4
2017-11-09T11:18:51.947Z,20.4
2017-11-09T11:19:03.569Z,20.4
2017-11-09T11:19:28.297Z,20.5
2017-11-09T11:19:39.433Z,20.4
2017-11-09T11:19:50.988Z,20.5
2017-11-09T11:20:06.525Z,20.5
2017-11-09T11:20:18.915Z,20.5
2017-11-09T11:20:30.434Z,20.5
2017-11-09T11:20:41.962Z,20.5
2017-11-09T11:21:07.576Z,20.4
2017-11-09T11:21:19.474Z,20.5
2017-11-09T11:21:31.026Z,20.5
2017-11-09T11:21:42.564Z,20.5
2017-11-09T11:21:54.163Z,20.5
2017-11-09T11:22:05.689Z,20.5
2017-11-09T11:22:22.850Z,20.5
2017-11-09T11:22:35.246Z,20.5
2017-11-09T11:22:46.803Z,20.5
2017-11-09T11:23:35.484Z,20.5
2017-11-09T11:23:47.123Z,20.5
2017-11-09T11:24:02.570Z,20.5
2017-11-09T11:24:14.926Z,20.4
2017-11-09T11:24:26.470Z,20.4
2017-11-09T11:24:38.056Z,20.5
2017-11-09T11:25:00.785Z,20.5
2017-11-09T11:25:12.415Z,20.5
2017-11-09T11:25:30.378Z,20.5
2017-11-09T11:25:41.834Z,20.5
2017-11-09T11:25:57.476Z,20.5
2017-11-09T11:26:09.773Z,20.5
2017-11-09T11:26:21.306Z,20.5
2017-11-09T11:26:32.842Z,20.4
2017-11-09T11:26:44.434Z,20.5
2017-11-09T11:26:55.947Z,20.5
2017-11-09T11:27:11.538Z,20.6
2017-11-09T11:27:23.899Z,20.4
2017-11-09T11:27:35.425Z,20.5
2017-11-09T11:28:05.923Z,20.5
2017-11-09T11:28:17.715Z,20.4
2017-11-09T11:28:29.286Z,20.5
2017-11-09T11:28:40.838Z,20.5
2017-11-09T11:28:56.371Z,20.5
2017-11-09T11:29:08.735Z,20.5
2017-11-09T11:29:24.251Z,20.4
2017-11-09T11:29:40.618Z,20.5
2017-11-09T11:29:52.944Z,20.5
2017-11-09T11:30:04.527Z,20.5
2017-11-09T11:30:16.041Z,20.5
2017-11-09T11:30:27.631Z,20.4
2017-11-09T11:30:39.187Z,20.4
2017-11-09T11:30:50.709Z,20.5
2017-11-09T11:31:02.308Z,20.5
2017-11-09T11:31:30.849Z,20.5
2017-11-09T11:31:43.015Z,20.5
2017-11-09T11:31:54.551Z,20.5
2017-11-09T11:32:06.134Z,20.4
2017-11-09T11:32:21.712Z,20.5
2017-11-09T11:32:38.027Z,20.4
2017-11-09T11:32:50.457Z,20.5
2017-11-09T11:33:01.948Z,20.5
2017-11-09T11:33:13.462Z,20.5
2017-11-09T11:33:25.050Z,20.5
2017-11-09T11:33:39.053Z,20.5
2017-11-09T11:34:15.674Z,20.5
2017-11-09T11:34:31.224Z,20.5
2017-11-09T11:34:47.501Z,20.6
2017-11-09T11:35:04.416Z,20.4
2017-11-09T11:35:16.273Z,20.5
2017-11-09T11:35:27.818Z,20.6
2017-11-09T11:35:43.371Z,20.5
2017-11-09T11:35:55.757Z,20.6
2017-11-09T11:36:07.310Z,20.6
2017-11-09T11:36:18.879Z,20.5
2017-11-09T11:36:30.452Z,20.6
2017-11-09T11:36:45.977Z,20.5
2017-11-09T11:36:58.309Z,20.4
2017-11-09T11:37:09.816Z,20.6
2017-11-09T11:37:25.594Z,20.6
2017-11-09T11:37:37.737Z,20.5
2017-11-09T11:37:49.260Z,20.5
2017-11-09T11:38:04.830Z,20.6
2017-11-09T11:38:17.240Z,20.6
2017-11-09T11:38:32.802Z,20.6
2017-11-09T11:38:45.657Z,20.5
2017-11-09T11:38:58.322Z,20.5
2017-11-09T11:39:13.830Z,20.5
2017-11-09T11:39:26.157Z,20.6
2017-11-09T11:39:41.747Z,20.5
2017-11-09T11:39:54.145Z,20.5
2017-11-09T11:40:09.699Z,20.6
2017-11-09T11:40:21.976Z,20.5
2017-11-09T11:40:49.040Z,20.6
2017-11-09T11:41:01.086Z,20.5
2017-11-09T11:41:16.632Z,20.5
2017-11-09T11:41:32.941Z,20.6
2017-11-09T11:41:49.304Z,20.5
2017-11-09T11:42:56.193Z,20.5
2017-11-09T11:43:07.646Z,20.5
2017-11-09T11:43:19.200Z,20.5
2017-11-09T11:43:30.723Z,20.5
2017-11-09T11:43:42.279Z,20.5
2017-11-09T11:43:53.844Z,20.6
2017-11-09T11:44:05.411Z,20.5
2017-11-09T11:44:21.023Z,20.6
2017-11-09T11:44:33.342Z,20.5
2017-11-09T11:44:44.969Z,20.5
2017-11-09T11:44:56.410Z,20.5
2017-11-09T11:45:11.977Z,20.7
2017-11-09T11:45:28.321Z,20.5
2017-11-09T11:45:40.659Z,20.6
2017-11-09T11:45:52.227Z,20.6
2017-11-09T11:46:07.763Z,20.7
2017-11-09T11:46:20.122Z,20.6
2017-11-09T11:46:35.672Z,20.6
2017-11-09T11:46:48.137Z,20.6
2017-11-09T11:46:59.547Z,20.6
2017-11-09T11:47:15.117Z,20.7
2017-11-09T11:47:27.487Z,20.6
2017-11-09T11:47:38.983Z,20.7
2017-11-09T11:47:50.594Z,20.6
2017-11-09T11:48:02.628Z,20.7
2017-11-09T11:48:13.676Z,20.4
2017-11-09T11:48:25.256Z,20.6
2017-11-09T11:48:36.725Z,20.5
2017-11-09T11:48:48.320Z,20.6
2017-11-09T11:49:03.873Z,20.6
2017-11-09T11:49:20.237Z,20.6
2017-11-09T11:49:36.530Z,20.6
2017-11-09T11:49:48.935Z,20.6
2017-11-09T11:50:00.587Z,20.5
2017-11-09T11:50:12.125Z,20.6
2017-11-09T11:50:27.628Z,20.6
2017-11-09T11:50:40.029Z,20.5
2017-11-09T11:50:51.569Z,20.5
2017-11-09T11:51:03.090Z,20.6
2017-11-09T11:51:18.614Z,20.5
2017-11-09T11:51:37.441Z,20.5
2017-11-09T11:51:48.897Z,20.5
2017-11-09T11:52:00.526Z,20.5
2017-11-09T11:52:12.028Z,20.5
2017-11-09T11:52:25.181Z,20.5
2017-11-09T11:52:36.748Z,20.4
2017-11-09T11:52:48.385Z,20.4
2017-11-09T11:52:59.881Z,20.5
2017-11-09T11:53:11.437Z,20.5
2017-11-09T11:53:26.960Z,20.5
2017-11-09T11:53:39.308Z,20.5
2017-11-09T11:57:36.516Z,20.4
2017-11-09T11:57:48.123Z,20.4
2017-11-09T11:58:03.592Z,20.4
2017-11-09T11:58:15.972Z,20.5
2017-11-09T11:59:28.136Z,20.5
2017-11-09T11:59:45.434Z,20.5
2017-11-09T11:59:57.805Z,20.5
2017-11-09T12:00:09.357Z,20.5
2017-11-09T12:00:24.960Z,20.5
2017-11-09T12:00:38.110Z,20.5
2017-11-09T12:01:15.566Z,20.6
2017-11-09T12:01:32.518Z,20.6
2017-11-09T12:01:48.294Z,20.5
2017-11-09T12:02:04.816Z,20.5
2017-11-09T12:02:17.026Z,20.6
2017-11-09T12:02:28.557Z,20.6
2017-11-09T12:02:44.122Z,20.5
2017-11-09T12:02:56.977Z,20.5
2017-11-09T12:03:09.645Z,20.5
2017-11-09T12:03:25.214Z,20.6
2017-11-09T12:03:37.575Z,20.5
2017-11-09T12:03:49.095Z,20.5
2017-11-09T12:04:00.698Z,20.6
2017-11-09T12:04:12.190Z,20.6
2017-11-09T12:04:23.786Z,20.6
2017-11-09T12:04:39.310Z,20.6
2017-11-09T12:04:51.685Z,20.5
2017-11-09T12:05:03.243Z,20.4
2017-11-09T12:05:18.748Z,20.5
2017-11-09T12:05:31.087Z,20.5
2017-11-09T12:05:42.744Z,20.4
2017-11-09T12:05:54.772Z,20.4
2017-11-09T12:06:11.396Z,20.4
2017-11-09T12:06:23.831Z,20.4
2017-11-09T12:06:36.878Z,20.4
2017-11-09T12:06:48.431Z,20.3
2017-11-09T12:07:01.016Z,20.4
2017-11-09T12:07:17.147Z,20.3
2017-11-09T12:07:29.500Z,20.3
2017-11-09T12:07:41.066Z,20.4
2017-11-09T12:07:52.615Z,20.4
2017-11-09T12:08:04.160Z,20.3
2017-11-09T12:08:15.694Z,20.3
2017-11-09T12:08:27.291Z,20.3
2017-11-09T12:08:38.818Z,20.3
2017-11-09T12:08:50.373Z,20.4
2017-11-09T12:09:01.929Z,20.4
2017-11-09T12:09:23.683Z,20.4
2017-11-09T12:09:40.262Z,20.3
2017-11-09T12:09:56.600Z,20.4
2017-11-09T12:10:08.986Z,20.3
2017-11-09T12:10:28.138Z,20.4
2017-11-09T12:17:06.031Z,20.6
2017-11-09T12:17:17.191Z,20.5
2017-11-09T12:17:28.778Z,20.5
2017-11-09T12:17:40.363Z,20.5
2017-11-09T12:17:51.884Z,20.5
2017-11-09T12:18:03.486Z,20.5
2017-11-09T12:18:18.993Z,20.6
2017-11-09T12:18:31.344Z,20.6
2017-11-09T12:18:42.900Z,20.5
2017-11-09T12:18:54.447Z,20.5
2017-11-09T12:19:05.994Z,20.5
2017-11-09T12:19:21.575Z,20.5
2017-11-09T12:19:33.905Z,20.5
2017-11-09T12:19:49.434Z,20.6
2017-11-09T12:20:01.870Z,20.5
2017-11-09T12:20:13.390Z,20.5
2017-11-09T12:20:28.884Z,20.5
2017-11-09T12:20:45.272Z,20.5
2017-11-09T12:20:57.666Z,20.5
2017-11-09T12:21:09.205Z,20.6
2017-11-09T12:21:20.771Z,20.5
2017-11-09T12:21:32.283Z,20.5
2017-11-09T12:21:47.858Z,20.6
2017-11-09T12:22:04.185Z,20.5
2017-11-09T12:22:19.099Z,20.5
2017-11-09T12:22:56.229Z,20.5
2017-11-09T12:23:12.485Z,20.6
2017-11-09T12:23:24.842Z,20.6
2017-11-09T12:23:36.380Z,20.5
2017-11-09T12:23:51.980Z,20.5
2017-11-09T12:24:08.285Z,20.6
2017-11-09T12:24:24.662Z,20.5
2017-11-09T12:24:41.051Z,20.6
2017-11-09T12:24:53.400Z,20.6
2017-11-09T12:25:08.921Z,20.5
2017-11-09T12:25:21.325Z,20.5
2017-11-09T12:25:34.422Z,20.5
2017-11-09T12:25:45.969Z,20.6
2017-11-09T12:25:57.544Z,20.6
2017-11-09T12:26:09.105Z,20.6
2017-11-09T12:26:24.749Z,20.6
2017-11-09T12:26:37.049Z,20.6
2017-11-09T12:26:48.594Z,20.5
2017-11-09T12:27:04.130Z,20.6
2017-11-09T12:27:20.453Z,20.6
2017-11-09T12:27:36.905Z,20.5
2017-11-09T12:27:59.653Z,20.6
2017-11-09T12:28:16.996Z,20.6
2017-11-09T12:28:34.011Z,20.6
2017-11-09T12:28:57.208Z,20.5
2017-11-09T12:29:08.972Z,20.5
2017-11-09T12:29:20.511Z,20.5
2017-11-09T12:29:32.061Z,20.6
2017-11-09T12:29:47.642Z,20.5
2017-11-09T12:29:59.979Z,20.5
2017-11-09T12:30:15.528Z,20.6
2017-11-09T12:30:27.883Z,20.5
2017-11-09T12:30:39.453Z,20.6
2017-11-09T12:31:06.517Z,20.5
2017-11-09T12:31:22.528Z,20.5
2017-11-09T12:31:34.882Z,20.5
2017-11-09T12:31:50.459Z,20.5
2017-11-09T12:32:02.845Z,20.6
2017-11-09T12:32:26.541Z,20.5
2017-11-09T12:32:38.754Z,20.6
2017-11-09T12:32:50.305Z,20.6
2017-11-09T12:33:05.825Z,20.6
2017-11-09T12:33:22.209Z,20.5
2017-11-09T12:33:38.565Z,20.5
2017-11-09T12:33:54.913Z,20.5
2017-11-09T12:34:11.243Z,20.6
2017-11-09T12:34:27.645Z,20.5
2017-11-09T12:34:43.501Z,20.5
2017-11-09T12:34:54.800Z,20.6
2017-11-09T12:35:10.279Z,20.6
2017-11-09T12:35:22.700Z,20.6
2017-11-09T12:35:34.231Z,20.5
2017-11-09T12:35:45.723Z,20.6
2017-11-09T12:35:57.307Z,20.5
2017-11-09T12:36:08.882Z,20.5
2017-11-09T12:36:24.482Z,20.5
2017-11-09T12:36:36.819Z,20.6
2017-11-09T12:36:48.320Z,20.6
2017-11-09T12:37:04.904Z,20.6
2017-11-09T12:37:20.254Z,20.4
2017-11-09T12:37:36.591Z,20.5
2017-11-09T12:37:48.971Z,20.6
2017-11-09T12:38:00.496Z,20.6
2017-11-09T12:38:16.079Z,20.6
2017-11-09T12:38:28.413Z,20.6
2017-11-09T12:38:43.970Z,20.5
2017-11-09T12:38:56.308Z,20.6
2017-11-09T12:39:07.906Z,20.5
2017-11-09T12:39:23.417Z,20.6
2017-11-09T12:39:39.784Z,20.5
2017-11-09T12:39:52.204Z,20.6
2017-11-09T12:40:03.736Z,20.5
2017-11-09T12:40:15.273Z,20.6
2017-11-09T12:40:26.817Z,20.4
2017-11-09T12:40:38.408Z,20.6
2017-11-09T12:40:53.986Z,20.6
2017-11-09T12:41:10.317Z,20.6
2017-11-09T12:41:26.642Z,20.6
2017-11-09T12:41:39.084Z,20.6
2017-11-09T12:41:50.568Z,20.6
2017-11-09T12:42:02.081Z,20.6
2017-11-09T12:42:30.498Z,20.5
2017-11-09T12:42:46.864Z,20.5
2017-11-09T12:43:03.217Z,20.6
2017-11-09T12:43:19.539Z,20.5
2017-11-09T12:43:35.880Z,20.6
2017-11-09T12:43:52.229Z,20.6
2017-11-09T12:44:08.632Z,20.6
2017-11-09T12:44:24.983Z,20.5
2017-11-09T12:44:42.311Z,20.5
2017-11-09T12:44:57.661Z,20.5
2017-11-09T12:45:14.035Z,20.5
2017-11-09T12:45:55.545Z,20.6
2017-11-09T12:46:07.081Z,20.5
2017-11-09T12:46:22.616Z,20.5
2017-11-09T12:46:38.963Z,20.6
2017-11-09T12:46:55.394Z,20.4
2017-11-09T12:47:07.660Z,20.6
2017-11-09T12:47:46.789Z,20.5
2017-11-09T12:47:58.382Z,20.5
2017-11-09T12:48:14.870Z,20.5
2017-11-09T12:48:26.317Z,20.5
2017-11-09T12:48:37.885Z,20.5
2017-11-09T12:48:49.374Z,20.5
2017-11-09T12:49:04.878Z,20.6
2017-11-09T12:49:21.291Z,20.5
2017-11-09T12:49:33.618Z,20.6
2017-11-09T12:49:45.373Z,20.6
2017-11-09T12:49:56.726Z,20.6
2017-11-09T12:50:12.273Z,20.5
2017-11-09T12:50:24.627Z,20.6
2017-11-09T12:50:36.160Z,20.6
2017-11-09T12:50:47.720Z,20.6
2017-11-09T12:51:04.891Z,20.6
2017-11-09T12:51:17.242Z,20.5
2017-11-09T12:51:28.769Z,20.6
2017-11-09T12:51:40.363Z,20.5
2017-11-09T12:51:55.911Z,20.5
2017-11-09T12:52:08.283Z,20.5
2017-11-09T12:52:19.848Z,20.6
2017-11-09T12:52:32.998Z,20.6
2017-11-09T12:52:44.535Z,20.5
2017-11-09T12:52:56.109Z,20.5
2017-11-09T12:53:07.639Z,20.4
2017-11-09T12:53:24.846Z,20.6
2017-11-09T12:53:37.178Z,20.5
2017-11-09T12:53:48.710Z,20.5
2017-11-09T12:54:00.261Z,20.6
2017-11-09T12:54:11.797Z,20.5
2017-11-09T12:54:27.340Z,20.5
2017-11-09T12:54:39.716Z,20.5
2017-11-09T12:55:01.187Z,20.6
2017-11-09T12:55:12.419Z,20.6
2017-11-09T12:55:27.935Z,20.6
2017-11-09T12:55:40.309Z,20.5
2017-11-09T12:55:55.794Z,20.5
2017-11-09T12:56:08.196Z,20.5
2017-11-09T12:56:23.788Z,20.5
2017-11-09T12:56:36.125Z,20.5
2017-11-09T12:56:47.653Z,20.5
2017-11-09T12:56:59.213Z,20.5
2017-11-09T12:57:10.749Z,20.5
2017-11-09T12:57:26.344Z,20.5
2017-11-09T12:57:38.714Z,20.5
2017-11-09T12:57:50.255Z,20.6
2017-11-09T12:58:05.765Z,20.5
2017-11-09T12:58:18.169Z,20.5
2017-11-09T12:58:33.640Z,20.6
2017-11-09T12:58:46.039Z,20.6
2017-11-09T12:58:57.586Z,20.4
2017-11-09T12:59:44.670Z,20.5
2017-11-09T12:59:56.250Z,20.5
2017-11-09T13:00:17.395Z,20.6
2017-11-09T13:00:28.909Z,20.6
2017-11-09T13:00:40.473Z,20.5
2017-11-09T13:00:52.067Z,20.5
2017-11-09T13:01:07.625Z,20.5
2017-11-09T13:01:19.927Z,20.5
2017-11-09T13:01:32.473Z,20.5
2017-11-09T13:01:44.651Z,20.6
2017-11-09T13:01:56.204Z,20.6
2017-11-09T13:02:07.726Z,20.5
2017-11-09T13:02:19.311Z,20.5
2017-11-09T13:02:30.872Z,20.6
2017-11-09T13:02:46.430Z,20.6
2017-11-09T13:03:13.341Z,20.6
2017-11-09T13:03:28.756Z,20.6
2017-11-09T13:03:45.591Z,20.6
2017-11-09T13:04:01.477Z,20.6
2017-11-09T13:04:17.815Z,20.6
2017-11-09T13:04:34.241Z,20.6
2017-11-09T13:04:51.019Z,20.5
2017-11-09T13:05:06.855Z,20.5
2017-11-09T13:05:31.215Z,20.6
2017-11-09T13:05:50.123Z,20.5
2017-11-09T13:06:05.549Z,20.6
2017-11-09T13:06:21.871Z,20.4
2017-11-09T13:06:38.295Z,20.5
2017-11-09T13:06:54.602Z,20.6
2017-11-09T13:07:13.417Z,20.6
2017-11-09T13:07:28.872Z,20.5
2017-11-09T13:07:41.207Z,20.5
2017-11-09T13:07:52.788Z,20.5
2017-11-09T13:08:10.845Z,20.5
2017-11-09T13:08:22.287Z,20.6
2017-11-09T13:08:37.860Z,20.6
2017-11-09T13:08:54.189Z,20.6
2017-11-09T13:09:34.105Z,20.6
2017-11-09T13:09:45.838Z,20.6
2017-11-09T13:09:57.208Z,20.6
2017-11-09T13:10:12.775Z,20.5
2017-11-09T13:10:25.141Z,20.6
2017-11-09T13:10:40.687Z,20.5
2017-11-09T13:10:57.027Z,20.5
2017-11-09T13:11:09.409Z,20.6
2017-11-09T13:11:24.922Z,20.6
2017-11-09T13:11:41.276Z,20.6
2017-11-09T13:11:53.619Z,20.7
2017-11-09T13:12:06.206Z,20.6
2017-11-09T13:12:18.438Z,20.6
2017-11-09T13:12:29.951Z,20.5
2017-11-09T13:12:45.513Z,20.5
2017-11-09T13:12:57.822Z,20.6
2017-11-09T13:13:13.376Z,20.6
2017-11-09T13:13:25.761Z,20.5
2017-11-09T13:13:41.344Z,20.5
2017-11-09T13:13:57.605Z,20.5
2017-11-09T13:14:09.998Z,20.6
2017-11-09T13:14:21.534Z,20.6
2017-11-09T13:14:33.094Z,20.6
2017-11-09T13:14:44.655Z,20.6
2017-11-09T13:15:00.198Z,20.6
2017-11-09T13:15:12.530Z,20.6
2017-11-09T13:15:24.093Z,20.5
2017-11-09T13:15:39.667Z,20.6
2017-11-09T13:15:55.994Z,20.6
2017-11-09T13:16:12.365Z,20.5
2017-11-09T13:16:28.740Z,20.6
2017-11-09T13:16:41.102Z,20.4
2017-11-09T13:16:52.681Z,20.5
2017-11-09T13:17:04.208Z,20.4
2017-11-09T13:17:15.742Z,20.6
2017-11-09T13:17:27.336Z,20.6
2017-11-09T13:17:38.842Z,20.6
2017-11-09T13:17:50.411Z,20.6
2017-11-09T13:18:17.023Z,20.6
2017-11-09T13:18:33.594Z,20.6
2017-11-09T13:18:50.416Z,20.6
2017-11-09T13:19:02.283Z,20.6
2017-11-09T13:19:13.849Z,20.6
2017-11-09T13:19:29.344Z,20.6
2017-11-09T13:19:45.719Z,20.6
2017-11-09T13:19:58.094Z,20.5
2017-11-09T13:20:13.619Z,20.6
2017-11-09T13:20:26.005Z,20.7
2017-11-09T13:20:41.523Z,20.7
2017-11-09T13:20:58.407Z,20.6
2017-11-09T13:21:14.258Z,20.5
2017-11-09T13:21:26.588Z,20.6
2017-11-09T13:21:38.217Z,20.6
2017-11-09T13:21:49.700Z,20.6
2017-11-09T13:22:01.326Z,20.6
2017-11-09T13:22:16.904Z,20.7
2017-11-09T13:22:33.146Z,20.7
2017-11-09T13:22:45.533Z,20.6
2017-11-09T13:22:57.136Z,20.6
2017-11-09T13:23:08.629Z,20.5
2017-11-09T13:23:24.233Z,20.6
2017-11-09T13:23:36.528Z,20.5
2017-11-09T13:23:48.096Z,20.6
2017-11-09T13:24:03.672Z,20.6
2017-11-09T13:24:20.042Z,20.6
2017-11-09T13:24:32.356Z,20.6
2017-11-09T13:24:48.015Z,20.6
2017-11-09T13:25:00.253Z,20.6
2017-11-09T13:25:15.875Z,20.7
2017-11-09T13:25:32.138Z,20.7
2017-11-09T13:25:48.494Z,20.6
2017-11-09T13:26:04.869Z,20.6
2017-11-09T13:26:17.279Z,20.5
2017-11-09T13:26:32.797Z,20.6
2017-11-09T13:26:45.189Z,20.5
2017-11-09T13:27:00.670Z,20.7
2017-11-09T13:27:13.034Z,20.5
2017-11-09T13:27:28.583Z,20.6
2017-11-09T13:27:44.926Z,20.6
2017-11-09T13:28:01.318Z,20.6
2017-11-09T13:28:25.752Z,20.5
2017-11-09T13:28:50.953Z,20.5
2017-11-09T13:29:06.318Z,20.7
2017-11-09T13:29:18.654Z,20.6
2017-11-09T13:29:30.193Z,20.6
2017-11-09T13:29:41.767Z,20.6
2017-11-09T13:29:53.289Z,20.7
2017-11-09T13:30:08.865Z,20.6
2017-11-09T13:30:21.208Z,20.6
2017-11-09T13:30:32.760Z,20.6
2017-11-09T13:30:48.272Z,20.6
2017-11-09T13:31:00.644Z,20.6
2017-11-09T13:31:12.198Z,20.6
2017-11-09T13:31:23.767Z,20.6
2017-11-09T13:31:39.334Z,20.7
2017-11-09T13:31:55.683Z,20.6
2017-11-09T13:32:08.009Z,20.6
2017-11-09T13:32:19.607Z,20.6
2017-11-09T13:32:31.178Z,20.6
2017-11-09T13:32:46.723Z,20.6
2017-11-09T13:33:06.888Z,20.6
2017-11-09T13:33:43.446Z,20.7
2017-11-09T13:34:00.393Z,20.6
2017-11-09T13:34:16.148Z,20.6
2017-11-09T13:34:32.442Z,20.5
2017-11-09T13:34:48.880Z,20.6
2017-11-09T13:35:03.765Z,20.5
2017-11-09T13:35:19.914Z,20.6
2017-11-09T13:35:32.257Z,20.5
2017-11-09T13:35:43.804Z,20.5
2017-11-09T13:35:56.948Z,20.6
2017-11-09T13:36:12.465Z,20.6
2017-11-09T13:36:28.849Z,20.6
2017-11-09T13:36:41.181Z,20.6
2017-11-09T13:36:56.750Z,20.5
2017-11-09T13:37:13.071Z,20.6
2017-11-09T13:37:29.487Z,20.5
2017-11-09T13:37:41.742Z,20.6
2017-11-09T13:37:53.385Z,20.6
2017-11-09T13:38:04.852Z,20.6
2017-11-09T13:38:20.414Z,20.6
2017-11-09T13:38:36.813Z,20.5
2017-11-09T13:38:53.196Z,20.6
2017-11-09T13:39:05.547Z,20.5
2017-11-09T13:39:21.061Z,20.5
2017-11-09T13:39:37.396Z,20.5
2017-11-09T13:39:53.831Z,20.5
2017-11-09T13:40:06.131Z,20.6
2017-11-09T13:40:17.685Z,20.6
2017-11-09T13:40:29.213Z,20.5
2017-11-09T13:40:40.759Z,20.6
2017-11-09T13:40:52.370Z,20.5
2017-11-09T13:41:03.879Z,20.7
2017-11-09T13:41:15.489Z,20.5
2017-11-09T13:41:30.975Z,20.6
2017-11-09T13:41:43.364Z,20.6
2017-11-09T13:41:54.936Z,20.5
2017-11-09T13:42:06.452Z,20.5
2017-11-09T13:42:18.014Z,20.6
2017-11-09T13:42:29.597Z,20.6
2017-11-09T13:42:41.158Z,20.6
2017-11-09T13:42:57.666Z,20.6
2017-11-09T13:43:09.011Z,20.6
2017-11-09T13:43:20.558Z,20.5
2017-11-09T13:43:32.110Z,20.6
2017-11-09T13:43:45.256Z,20.4
2017-11-09T13:44:00.867Z,20.5
2017-11-09T13:44:13.164Z,20.6
2017-11-09T13:44:28.707Z,20.7
2017-11-09T13:44:41.057Z,20.6
2017-11-09T13:44:52.610Z,20.6
2017-11-09T13:45:04.300Z,20.6
2017-11-09T13:45:15.718Z,20.5
2017-11-09T13:45:27.300Z,20.5
2017-11-09T13:45:38.856Z,20.5
2017-11-09T13:45:50.405Z,20.6
2017-11-09T13:46:06.012Z,20.5
2017-11-09T13:46:18.305Z,20.6
2017-11-09T13:46:29.896Z,20.4
2017-11-09T13:46:41.441Z,20.6
2017-11-09T13:46:52.977Z,20.5
2017-11-09T13:47:04.546Z,20.6
2017-11-09T13:47:16.098Z,20.6
2017-11-09T13:47:27.610Z,20.6
2017-11-09T13:47:39.186Z,20.6
2017-11-09T13:47:50.756Z,20.5
2017-11-09T13:57:22.356Z,20.6